Latest Weather Observations for Gingin Airport

IDW60801

Issued at 11:35 pm WST Thursday 23 October 2014 (issued every 30 minutes, with the page automatically refreshed every 10 minutes)

About weather observations | Map of weather stations | Latest weather observations for WA | Other Formats
Station Details ID: 009178 Name: GINGIN AERO Lat: -31.46 Lon: 115.86 Height: 73.0 m
Data from the previous 72 hours. | See also: Recent months at Gingin Airport
Date/Time
WST
Temp
°C
App
Temp
°C
Dew
Point
Rel
Hum
%
Delta-T
°C
Wind Press
QNH
hPa
Press
MSL
hPa
Rain
since 9 am
mm
Dir
 
Spd
km/h
Gust
km/h
Spd
kts
Gust
kts
23/11:30pm 11.3 11.3 11.3 100 0.0 SSW 2 6 1 3 1017.9 1017.7 0.0
23/11:00pm 11.1 11.1 11.1 100 0.0 SSW 2 7 1 4 1018.1 1017.9 0.0
23/10:30pm 11.3 10.6 11.3 100 0.0 SSW 6 7 3 4 1018.1 1017.9 0.0
23/10:00pm 11.8 11.2 11.8 100 0.0 SSW 6 7 3 4 1018.3 1018.1 0.0
23/09:30pm 12.6 13.4 12.6 100 0.0 CALM 0 0 0 0 1018.5 1018.4 0.0
23/09:00pm 14.4 14.3 13.9 97 0.3 SSW 7 9 4 5 1018.4 1018.2 0.0
23/08:30pm 15.2 15.5 14.4 95 0.5 SSW 6 6 3 3 1018.4 1018.2 0.0
23/08:00pm 15.7 15.8 14.4 92 0.7 S 7 9 4 5 1018.3 1018.1 0.0
23/07:30pm 16.5 15.9 14.7 89 1.0 SSW 11 13 6 7 1018.1 1017.9 0.0
23/07:00pm 17.0 15.6 14.5 85 1.4 SSW 15 19 8 10 1017.7 1017.5 0.0
23/06:30pm 17.8 15.8 13.9 78 2.2 SSW 17 24 9 13 1017.4 1017.2 0.0
23/06:00pm 18.8 16.2 13.9 73 2.8 SW 20 28 11 15 1017.2 1017.0 0.0
23/05:30pm 19.3 16.7 13.9 71 3.1 SW 20 30 11 16 1016.8 1016.7 0.0
23/05:00pm 20.5 17.6 13.0 62 4.3 SW 20 26 11 14 1016.5 1016.4 0.0
23/04:30pm 20.9 17.8 12.1 57 4.9 SW 20 28 11 15 1016.4 1016.3 0.0
23/04:00pm 21.6 18.9 13.5 60 4.7 SW 20 28 11 15 1016.3 1016.2 0.0
23/03:30pm 21.9 18.2 11.6 52 5.8 WSW 22 32 12 17 1016.1 1016.0 0.0
23/03:00pm 21.3 17.5 12.4 57 5.0 WSW 24 32 13 17 1016.1 1016.0 0.0
23/02:30pm 21.0 17.4 13.2 61 4.5 SW 24 32 13 17 1016.1 1016.0 0.0
23/02:00pm 21.4 17.6 12.3 56 5.1 SW 24 35 13 19 1016.2 1016.1 0.0
23/01:30pm 21.5 17.8 12.6 57 5.1 SW 24 35 13 19 1016.3 1016.2 0.0
23/01:00pm 22.4 19.2 14.3 60 4.8 WSW 24 35 13 19 1016.2 1016.1 0.0
23/12:30pm 22.3 19.4 13.9 59 4.9 W 22 28 12 15 1016.3 1016.2 0.0
23/12:00pm 21.6 18.0 14.3 63 4.3 WSW 26 35 14 19 1016.3 1016.2 0.0
23/11:30am 20.1 16.1 14.0 68 3.5 W 28 35 15 19 1016.5 1016.4 0.0
23/11:00am 20.9 18.5 16.3 75 2.8 WSW 24 33 13 18 1016.5 1016.4 0.0
23/10:30am 20.4 17.5 15.2 72 3.1 WSW 24 35 13 19 1016.5 1016.4 0.0
23/10:00am 20.3 18.0 15.7 75 2.7 W 22 32 12 17 1016.4 1016.3 0.0
23/09:30am 19.9 18.8 17.7 87 1.4 W 20 32 11 17 1016.3 1016.2 0.0
23/09:00am 17.3 16.6 17.3 100 0.0 WSW 17 22 9 12 1016.2 1016.1 3.6
23/08:36am 17.6 14.2 16.8 95 0.5 WSW 30 43 16 23 1016.1 1016.0 2.8
23/08:30am 20.0 19.9 18.7 92 0.8 WNW 17 24 9 13 1016.0 1015.9 2.6
23/08:00am 17.7 16.8 17.7 100 0.0 WNW 19 26 10 14 1015.8 1015.7 2.6
23/07:30am 16.8 16.6 16.8 100 0.0 NW 13 17 7 9 1015.6 1015.5 2.6
23/07:00am 15.2 14.8 15.2 100 0.0 NNW 11 17 6 9 1015.4 1015.3 2.6
23/06:30am 13.9 13.4 13.9 100 0.0 NNW 9 13 5 7 1015.2 1015.1 2.6
23/06:00am 13.0 12.2 13.0 100 0.0 N 9 13 5 7 1014.8 1014.7 2.6
23/05:30am 12.7 11.5 12.7 100 0.0 N 11 13 6 7 1014.3 1014.2 2.6
23/05:00am 12.8 11.6 12.8 100 0.0 N 11 13 6 7 1014.0 1013.9 2.6
23/04:30am 13.2 12.1 13.2 100 0.0 N 11 13 6 7 1013.8 1013.7 2.6
23/04:00am 13.6 13.0 13.6 100 0.0 N 9 11 5 6 1014.1 1014.0 2.6
23/03:30am 13.7 13.5 13.7 100 0.0 N 7 9 4 5 1014.3 1014.2 2.6
23/03:00am 14.2 14.2 14.2 100 0.0 NNW 7 11 4 6 1014.5 1014.4 2.6
23/02:30am 14.6 14.4 14.6 100 0.0 NW 9 13 5 7 1014.5 1014.4 2.6
23/02:00am 14.2 13.5 14.2 100 0.0 NNW 11 15 6 8 1014.5 1014.4 2.6
23/01:30am 14.0 13.2 14.0 100 0.0 N 11 15 6 8 1014.4 1014.3 2.4
23/01:00am 13.7 13.5 13.7 100 0.0 N 7 9 4 5 1014.4 1014.3 2.4
23/12:30am 14.1 14.1 14.1 100 0.0 N 7 9 4 5 1014.5 1014.4 2.4
23/12:00am 14.6 14.8 14.6 100 0.0 N 7 9 4 5 1015.1 1015.0 2.4
 
Date/Time
WST
Temp
°C
App
Temp
°C
Dew
Point
Rel
Hum
%
Delta-T
°C
Wind Press
QNH
hPa
Press
MSL
hPa
Rain
since 9 am
mm
Dir
 
Spd
km/h
Gust
km/h
Spd
kts
Gust
kts
22/11:30pm 14.8 14.6 14.8 100 0.0 N 9 15 5 8 1015.3 1015.2 2.4
22/11:00pm 14.4 13.7 14.4 100 0.0 N 11 17 6 9 1015.3 1015.2 2.4
22/10:30pm 14.8 13.9 14.8 100 0.0 NNE 13 17 7 9 1014.8 1014.7 2.4
22/10:00pm 14.9 14.4 14.9 100 0.0 NW 11 15 6 8 1015.5 1015.4 2.2
22/09:30pm 16.0 15.2 16.0 100 0.0 NW 15 20 8 11 1015.9 1015.8 0.0
22/09:00pm 16.2 14.4 15.6 96 0.4 W 19 28 10 15 1015.6 1015.5 0.0
22/08:30pm 17.4 16.0 14.5 83 1.7 NW 15 20 8 11 1015.2 1015.1 0.0
22/08:00pm 16.7 15.6 14.3 86 1.4 NW 13 17 7 9 1015.0 1014.9 0.0
22/07:30pm 17.0 16.3 14.3 84 1.5 NW 11 13 6 7 1014.8 1014.7 0.0
22/07:00pm 17.8 16.5 13.7 77 2.3 WNW 13 17 7 9 1014.5 1014.4 0.0
22/06:30pm 18.5 16.3 13.4 72 2.9 WNW 17 22 9 12 1014.1 1014.0 0.0
22/06:00pm 19.4 15.8 13.1 67 3.6 WNW 24 35 13 19 1014.1 1014.0 0.0
22/05:30pm 20.0 15.7 13.2 65 3.9 WNW 28 39 15 21 1013.8 1013.7 0.0
22/05:00pm 21.3 17.0 13.2 60 4.7 WNW 28 41 15 22 1013.6 1013.5 0.0
22/04:30pm 22.5 18.5 13.0 55 5.5 WNW 26 41 14 22 1013.1 1013.0 0.0
22/04:00pm 23.4 17.5 10.5 44 7.1 WNW 32 43 17 23 1013.0 1012.9 0.0
22/03:30pm 22.8 18.0 14.1 58 5.1 WNW 32 46 17 25 1012.9 1012.8 0.0
22/03:00pm 23.4 18.8 14.7 58 5.2 WNW 32 46 17 25 1012.5 1012.4 0.0
22/02:30pm 24.3 20.0 15.5 58 5.3 WNW 32 46 17 25 1012.2 1012.1 0.0
22/02:00pm 25.5 20.4 13.7 48 7.0 WNW 33 46 18 25 1012.1 1012.0 0.0
22/01:30pm 26.3 21.1 13.4 45 7.6 WNW 33 46 18 25 1011.9 1011.8 0.0
22/01:00pm 27.3 22.6 13.3 42 8.3 WNW 30 46 16 25 1011.7 1011.6 0.0
22/12:30pm 28.6 23.9 12.1 36 9.6 WNW 28 37 15 20 1011.5 1011.4 0.0
22/12:00pm 31.8 25.7 6.8 21 13.6 NW 28 43 15 23 1011.4 1011.3 0.0
22/11:30am 31.8 25.0 5.3 19 14.0 N 30 43 16 23 1011.7 1011.6 0.0
22/11:00am 30.6 26.0 9.5 27 11.9 NNE 24 39 13 21 1012.0 1011.9 0.0
22/10:30am 28.8 24.2 9.5 30 10.8 NNE 24 35 13 19 1012.7 1012.6 0.0
22/10:00am 27.2 22.8 10.4 35 9.5 NE 24 35 13 19 1013.7 1013.6 0.0
22/09:30am 26.1 21.3 10.3 37 8.8 NNE 26 39 14 21 1014.5 1014.4 0.0
22/09:00am 25.9 23.7 12.0 42 8.0 NE 15 22 8 12 1014.6 1014.5 0.0
22/08:30am 24.5 22.7 12.1 46 7.1 NNE 13 20 7 11 1014.7 1014.6 0.0
22/08:00am 23.1 18.9 11.2 47 6.7 NE 24 33 13 18 1013.9 1013.8 0.0
22/07:30am 21.2 16.7 11.5 54 5.4 ENE 26 35 14 19 1013.4 1013.3 0.0
22/07:00am 19.6 16.0 11.9 61 4.3 E 22 28 12 15 1013.6 1013.5 0.0
22/06:30am 19.0 15.0 11.8 63 4.0 E 24 35 13 19 1013.6 1013.5 0.0
22/06:00am 18.8 15.7 11.6 63 4.0 E 19 32 10 17 1013.7 1013.6 0.0
22/05:30am 17.6 14.9 11.8 69 3.2 E 17 24 9 13 1013.5 1013.4 0.0
22/05:00am 17.4 13.0 11.7 69 3.1 E 26 35 14 19 1013.6 1013.5 0.0
22/04:30am 17.9 13.1 11.7 67 3.4 E 28 37 15 20 1013.6 1013.5 0.0
22/04:00am 17.9 13.1 11.5 66 3.5 E 28 37 15 20 1013.7 1013.6 0.0
22/03:30am 18.0 13.9 11.3 65 3.7 E 24 32 13 17 1013.9 1013.8 0.0
22/03:00am 18.1 13.5 11.2 64 3.8 E 26 33 14 18 1013.9 1013.8 0.0
22/02:30am 18.7 13.4 11.3 62 4.1 E 30 35 16 19 1014.4 1014.3 0.0
22/02:00am 18.8 15.1 11.4 62 4.1 E 22 32 12 17 1014.8 1014.7 0.0
22/01:30am 18.7 14.5 11.0 61 4.2 E 24 30 13 16 1015.1 1015.0 0.0
22/01:00am 19.1 15.1 11.7 62 4.1 E 24 33 13 18 1015.5 1015.4 0.0
22/12:30am 18.6 15.3 11.7 64 3.8 E 20 26 11 14 1015.8 1015.7 0.0
22/12:00am 17.5 14.8 13.0 75 2.5 E 19 22 10 12 1016.2 1016.1 0.0
 
Date/Time
WST
Temp
°C
App
Temp
°C
Dew
Point
Rel
Hum
%
Delta-T
°C
Wind Press
QNH
hPa
Press
MSL
hPa
Rain
since 9 am
mm
Dir
 
Spd
km/h
Gust
km/h
Spd
kts
Gust
kts
21/11:30pm 14.6 13.3 13.6 94 0.6 SE 13 17 7 9 1016.6 1016.5 0.0
21/11:00pm 13.6 13.0 13.6 100 0.0 ESE 9 11 5 6 1016.8 1016.7 0.0
21/10:30pm 13.8 12.7 13.2 96 0.3 E 11 13 6 7 1017.4 1017.2 0.0
21/10:00pm 14.9 14.1 13.9 94 0.6 SE 11 13 6 7 1018.1 1017.9 0.0
21/09:30pm 15.1 14.2 13.8 92 0.7 SSE 11 13 6 7 1018.5 1018.4 0.0
21/09:00pm 15.1 14.9 13.5 90 0.9 SSE 7 9 4 5 1018.9 1018.8 0.0
21/08:30pm 15.6 15.3 13.4 87 1.2 S 7 9 4 5 1019.1 1019.0 0.0
21/08:00pm 16.3 16.0 13.2 82 1.7 SSW 7 9 4 5 1019.1 1019.0 0.0
21/07:30pm 17.0 16.3 13.1 78 2.2 SSW 9 11 5 6 1019.2 1019.1 0.0
21/07:00pm 17.8 17.1 13.1 74 2.6 S 9 13 5 7 1019.2 1019.1 0.0
21/06:30pm 18.9 17.7 12.9 68 3.4 S 11 17 6 9 1019.1 1019.0 0.0
21/06:00pm 20.2 17.9 12.9 63 4.1 SSW 17 20 9 11 1018.8 1018.7 0.0
21/05:30pm 21.3 18.3 12.7 58 4.9 SSW 20 26 11 14 1018.6 1018.5 0.0
21/05:00pm 22.1 18.4 12.6 55 5.4 SW 24 32 13 17 1018.5 1018.4 0.0
21/04:30pm 24.1 20.9 13.0 50 6.4 SSW 22 30 12 16 1018.4 1018.2 0.0
21/04:00pm 25.4 22.4 11.9 43 7.7 SSW 19 28 10 15 1018.4 1018.2 0.0
21/03:30pm 25.9 23.9 11.6 40 8.2 SSW 13 20 7 11 1018.5 1018.4 0.0
21/03:00pm 25.6 22.4 9.8 37 8.7 WSW 17 20 9 11 1019.0 1018.9 0.0
21/02:30pm 26.6 24.5 6.6 28 10.5 NNW 7 13 4 7 1019.2 1019.1 0.0
21/02:00pm 25.5 22.6 6.7 30 9.8 ENE 11 17 6 9 1019.5 1019.4 0.0
21/01:30pm 24.8 22.1 7.4 33 9.2 NE 11 20 6 11 1020.0 1019.9 0.0
21/01:00pm 24.7 22.4 7.4 33 9.1 N 9 17 5 9 1020.3 1020.2 0.0
21/12:30pm 23.6 21.4 7.7 36 8.4 NE 9 15 5 8 1020.6 1020.5 0.0
21/12:00pm 23.3 21.6 10.0 43 7.3 ESE 9 15 5 8 1020.7 1020.6 0.0
21/11:30am 22.6 20.8 10.7 47 6.6 NE 11 17 6 9 1020.9 1020.8 0.0
21/11:00am 22.1 20.0 9.6 45 6.7 NE 11 20 6 11 1021.3 1021.2 0.0
21/10:30am 21.0 19.6 10.8 52 5.6 NNE 9 19 5 10 1021.8 1021.7 0.0
21/10:00am 19.9 19.0 11.4 58 4.7 E 7 13 4 7 1022.2 1022.1 0.0
21/09:30am 19.1 17.8 12.4 65 3.8 E 11 20 6 11 1022.3 1022.2 0.0
21/09:00am 18.0 16.8 12.9 72 2.9 SE 11 17 6 9 1022.4 1022.3 0.0
21/08:30am 17.5 16.2 13.8 79 2.1 E 13 19 7 10 1022.4 1022.3 0.0
21/08:00am 16.1 15.1 13.4 84 1.5 E 11 15 6 8 1022.5 1022.4 0.0
21/07:30am 14.5 13.4 14.2 98 0.2 ESE 13 17 7 9 1022.4 1022.3 0.0
21/07:00am 12.2 11.7 12.2 100 0.0 ESE 6 9 3 5 1022.2 1022.1 0.0
21/06:30am 8.8 8.5 8.8 100 0.0 CALM 0 0 0 0 1021.9 1021.8 0.0
21/06:00am 5.4 3.2 5.4 100 0.0 S 6 6 3 3 1021.5 1021.4 0.0
21/05:30am 5.8 3.7 5.8 100 0.0 S 6 6 3 3 1021.4 1021.3 0.0
21/05:00am 5.3 4.2 5.3 100 0.0 CALM 0 0 0 0 1021.3 1021.2 0.0
21/04:30am 5.2 4.1 5.2 100 0.0 CALM 0 0 0 0 1020.9 1020.8 0.0
21/04:00am 5.9 5.0 5.9 100 0.0 CALM 0 0 0 0 1020.7 1020.6 0.0
21/03:30am 6.0 5.1 6.0 100 0.0 CALM 0 0 0 0 1020.5 1020.4 0.0
21/03:00am 6.5 5.7 6.5 100 0.0 CALM 0 0 0 0 1020.2 1020.1 0.0
21/02:30am 6.7 4.8 6.7 100 0.0 S 6 7 3 4 1020.3 1020.2 0.0
21/02:00am 6.9 6.2 6.9 100 0.0 CALM 0 0 0 0 1020.5 1020.4 0.0
21/01:30am 6.6 5.8 6.6 100 0.0 CALM 0 0 0 0 1020.6 1020.5 0.0
21/01:00am 7.0 6.3 7.0 100 0.0 CALM 0 0 0 0 1020.5 1020.4 0.0
21/12:30am 7.7 7.2 7.7 100 0.0 CALM 0 0 0 0 1020.4 1020.3 0.0
21/12:00am 8.3 7.2 8.3 100 0.0 S 4 6 2 3 1020.7 1020.6 0.0

Other Formats:

Comma delimited format used in spreadsheet applications
http://www.bom.gov.au/fwo/IDW60801/IDW60801.95612.axf

JavaScript Object Notation format (JSON) in row-major order
http://www.bom.gov.au/fwo/IDW60801/IDW60801.95612.json